sensor_id;sensor_type;location;lat;lon;timestamp;temperature;humidity
24146;DHT22;12308;50.948;4.706;2023-06-22T00:00:30;22.40;99.90
24146;DHT22;12308;50.948;4.706;2023-06-22T00:02:55;22.40;99.90
24146;DHT22;12308;50.948;4.706;2023-06-22T00:05:21;22.40;99.90
24146;DHT22;12308;50.948;4.706;2023-06-22T00:07:46;22.40;99.90
24146;DHT22;12308;50.948;4.706;2023-06-22T00:10:12;22.50;99.90
24146;DHT22;12308;50.948;4.706;2023-06-22T00:12:38;22.40;99.90
24146;DHT22;12308;50.948;4.706;2023-06-22T00:15:04;22.50;99.90
24146;DHT22;12308;50.948;4.706;2023-06-22T00:17:30;22.30;99.90
24146;DHT22;12308;50.948;4.706;2023-06-22T00:19:55;22.20;99.90
24146;DHT22;12308;50.948;4.706;2023-06-22T00:22:24;22.20;99.90
24146;DHT22;12308;50.948;4.706;2023-06-22T00:24:55;22.10;99.90
24146;DHT22;12308;50.948;4.706;2023-06-22T00:27:21;22.00;99.90
24146;DHT22;12308;50.948;4.706;2023-06-22T00:29:46;22.00;99.90
24146;DHT22;12308;50.948;4.706;2023-06-22T00:32:12;21.60;99.90
24146;DHT22;12308;50.948;4.706;2023-06-22T00:34:38;21.70;99.90
24146;DHT22;12308;50.948;4.706;2023-06-22T00:37:04;21.60;99.90
24146;DHT22;12308;50.948;4.706;2023-06-22T00:39:29;21.60;99.90
24146;DHT22;12308;50.948;4.706;2023-06-22T00:41:55;21.70;99.90
24146;DHT22;12308;50.948;4.706;2023-06-22T00:44:21;21.70;99.90
24146;DHT22;12308;50.948;4.706;2023-06-22T00:46:46;21.50;99.90
24146;DHT22;12308;50.948;4.706;2023-06-22T00:49:12;21.40;99.90
24146;DHT22;12308;50.948;4.706;2023-06-22T00:51:38;21.50;99.90
24146;DHT22;12308;50.948;4.706;2023-06-22T00:54:04;21.40;99.90
24146;DHT22;12308;50.948;4.706;2023-06-22T00:56:31;21.40;99.90
24146;DHT22;12308;50.948;4.706;2023-06-22T00:58:58;21.60;99.90
24146;DHT22;12308;50.948;4.706;2023-06-22T01:01:25;21.80;99.90
24146;DHT22;12308;50.948;4.706;2023-06-22T01:03:51;21.90;99.90
24146;DHT22;12308;50.948;4.706;2023-06-22T01:06:22;21.90;99.90
24146;DHT22;12308;50.948;4.706;2023-06-22T01:09:05;21.90;99.90
24146;DHT22;12308;50.948;4.706;2023-06-22T01:11:36;22.00;99.90
24146;DHT22;12308;50.948;4.706;2023-06-22T01:14:10;21.90;99.90
24146;DHT22;12308;50.948;4.706;2023-06-22T01:16:41;22.10;99.90
24146;DHT22;12308;50.948;4.706;2023-06-22T01:19:35;22.10;99.90
24146;DHT22;12308;50.948;4.706;2023-06-22T01:22:02;22.00;99.90
24146;DHT22;12308;50.948;4.706;2023-06-22T01:24:32;22.00;99.90
24146;DHT22;12308;50.948;4.706;2023-06-22T01:27:32;21.90;99.90
24146;DHT22;12308;50.948;4.706;2023-06-22T01:29:59;21.80;99.90
24146;DHT22;12308;50.948;4.706;2023-06-22T01:32:31;21.70;99.90
24146;DHT22;12308;50.948;4.706;2023-06-22T01:35:00;21.60;99.90
24146;DHT22;12308;50.948;4.706;2023-06-22T01:37:27;21.50;99.90
24146;DHT22;12308;50.948;4.706;2023-06-22T01:39:55;21.30;99.90
24146;DHT22;12308;50.948;4.706;2023-06-22T01:42:23;21.30;99.90
24146;DHT22;12308;50.948;4.706;2023-06-22T01:44:49;21.40;99.90
24146;DHT22;12308;50.948;4.706;2023-06-22T01:47:16;21.30;99.90
24146;DHT22;12308;50.948;4.706;2023-06-22T01:49:43;21.20;99.90
24146;DHT22;12308;50.948;4.706;2023-06-22T01:52:09;21.30;99.90
24146;DHT22;12308;50.948;4.706;2023-06-22T01:54:35;21.30;99.90
24146;DHT22;12308;50.948;4.706;2023-06-22T01:57:00;21.40;99.90
24146;DHT22;12308;50.948;4.706;2023-06-22T01:59:34;21.30;99.90
24146;DHT22;12308;50.948;4.706;2023-06-22T02:02:10;21.30;99.90
24146;DHT22;12308;50.948;4.706;2023-06-22T02:05:04;21.10;99.90
24146;DHT22;12308;50.948;4.706;2023-06-22T02:07:33;21.00;99.90
24146;DHT22;12308;50.948;4.706;2023-06-22T02:10:02;21.00;99.90
24146;DHT22;12308;50.948;4.706;2023-06-22T02:12:31;20.90;99.90
24146;DHT22;12308;50.948;4.706;2023-06-22T02:14:57;20.80;99.90
24146;DHT22;12308;50.948;4.706;2023-06-22T02:17:24;20.70;99.90
24146;DHT22;12308;50.948;4.706;2023-06-22T02:19:50;20.70;99.90
24146;DHT22;12308;50.948;4.706;2023-06-22T02:22:16;20.70;99.90
24146;DHT22;12308;50.948;4.706;2023-06-22T02:24:42;20.60;99.90
24146;DHT22;12308;50.948;4.706;2023-06-22T02:27:07;20.70;99.90
24146;DHT22;12308;50.948;4.706;2023-06-22T02:29:33;20.60;99.90
24146;DHT22;12308;50.948;4.706;2023-06-22T02:31:59;20.50;99.90
24146;DHT22;12308;50.948;4.706;2023-06-22T02:34:25;20.40;99.90
24146;DHT22;12308;50.948;4.706;2023-06-22T02:36:51;20.40;99.90
24146;DHT22;12308;50.948;4.706;2023-06-22T02:39:25;20.40;99.90
24146;DHT22;12308;50.948;4.706;2023-06-22T02:41:53;20.40;99.90
24146;DHT22;12308;50.948;4.706;2023-06-22T02:44:19;20.40;99.90
24146;DHT22;12308;50.948;4.706;2023-06-22T02:46:45;20.50;99.90
24146;DHT22;12308;50.948;4.706;2023-06-22T02:49:11;20.40;99.90
24146;DHT22;12308;50.948;4.706;2023-06-22T02:51:45;20.40;99.90
24146;DHT22;12308;50.948;4.706;2023-06-22T02:54:11;20.30;99.90
24146;DHT22;12308;50.948;4.706;2023-06-22T02:56:37;20.40;99.90
24146;DHT22;12308;50.948;4.706;2023-06-22T02:59:03;20.30;99.90
24146;DHT22;12308;50.948;4.706;2023-06-22T03:01:29;20.30;99.90
24146;DHT22;12308;50.948;4.706;2023-06-22T03:03:56;20.30;99.90
24146;DHT22;12308;50.948;4.706;2023-06-22T03:06:22;20.20;99.90
24146;DHT22;12308;50.948;4.706;2023-06-22T03:08:49;20.00;99.90
24146;DHT22;12308;50.948;4.706;2023-06-22T03:11:15;19.90;99.90
24146;DHT22;12308;50.948;4.706;2023-06-22T03:13:41;20.00;99.90
24146;DHT22;12308;50.948;4.706;2023-06-22T03:16:06;20.10;99.90
24146;DHT22;12308;50.948;4.706;2023-06-22T03:18:32;20.10;99.90
24146;DHT22;12308;50.948;4.706;2023-06-22T03:20:58;20.10;99.90
24146;DHT22;12308;50.948;4.706;2023-06-22T03:23:24;19.90;99.90
24146;DHT22;12308;50.948;4.706;2023-06-22T03:25:49;20.00;99.90
24146;DHT22;12308;50.948;4.706;2023-06-22T03:28:15;20.00;99.90
24146;DHT22;12308;50.948;4.706;2023-06-22T03:30:41;19.60;99.90
24146;DHT22;12308;50.948;4.706;2023-06-22T03:33:06;19.80;99.90
24146;DHT22;12308;50.948;4.706;2023-06-22T03:35:32;20.00;99.90
24146;DHT22;12308;50.948;4.706;2023-06-22T03:37:58;20.10;99.90
24146;DHT22;12308;50.948;4.706;2023-06-22T03:40:23;20.10;99.90
24146;DHT22;12308;50.948;4.706;2023-06-22T03:42:49;20.10;99.90
24146;DHT22;12308;50.948;4.706;2023-06-22T03:45:15;20.20;99.90
24146;DHT22;12308;50.948;4.706;2023-06-22T03:47:41;20.20;99.90
24146;DHT22;12308;50.948;4.706;2023-06-22T03:50:07;20.20;99.90
24146;DHT22;12308;50.948;4.706;2023-06-22T03:52:33;20.20;99.90
24146;DHT22;12308;50.948;4.706;2023-06-22T03:54:59;20.30;99.90
24146;DHT22;12308;50.948;4.706;2023-06-22T03:57:24;20.30;99.90
24146;DHT22;12308;50.948;4.706;2023-06-22T03:59:50;20.30;99.90
24146;DHT22;12308;50.948;4.706;2023-06-22T04:02:16;20.50;99.90
24146;DHT22;12308;50.948;4.706;2023-06-22T04:04:41;20.50;99.90
24146;DHT22;12308;50.948;4.706;2023-06-22T04:07:07;20.40;99.90
24146;DHT22;12308;50.948;4.706;2023-06-22T04:09:33;20.50;99.90
24146;DHT22;12308;50.948;4.706;2023-06-22T04:11:59;20.40;99.90
24146;DHT22;12308;50.948;4.706;2023-06-22T04:14:25;20.40;99.90
24146;DHT22;12308;50.948;4.706;2023-06-22T04:16:52;20.50;99.90
24146;DHT22;12308;50.948;4.706;2023-06-22T04:19:17;20.50;99.90
24146;DHT22;12308;50.948;4.706;2023-06-22T04:21:43;20.70;99.90
24146;DHT22;12308;50.948;4.706;2023-06-22T04:24:10;20.80;99.90
24146;DHT22;12308;50.948;4.706;2023-06-22T04:26:36;20.90;99.90
24146;DHT22;12308;50.948;4.706;2023-06-22T04:29:05;21.00;99.90
24146;DHT22;12308;50.948;4.706;2023-06-22T04:31:32;20.90;99.90
24146;DHT22;12308;50.948;4.706;2023-06-22T04:34:03;20.60;99.90
24146;DHT22;12308;50.948;4.706;2023-06-22T04:36:37;20.60;99.90
24146;DHT22;12308;50.948;4.706;2023-06-22T04:39:10;20.60;99.90
24146;DHT22;12308;50.948;4.706;2023-06-22T04:41:36;20.60;99.90
24146;DHT22;12308;50.948;4.706;2023-06-22T04:46:35;20.80;99.90
24146;DHT22;12308;50.948;4.706;2023-06-22T04:49:07;21.00;99.90
24146;DHT22;12308;50.948;4.706;2023-06-22T04:51:40;21.20;99.90
24146;DHT22;12308;50.948;4.706;2023-06-22T04:54:07;20.90;99.90
24146;DHT22;12308;50.948;4.706;2023-06-22T04:56:33;20.70;99.90
24146;DHT22;12308;50.948;4.706;2023-06-22T04:58:59;20.60;99.90
24146;DHT22;12308;50.948;4.706;2023-06-22T05:01:25;20.60;99.90
24146;DHT22;12308;50.948;4.706;2023-06-22T05:03:51;20.60;99.90
24146;DHT22;12308;50.948;4.706;2023-06-22T05:06:21;20.70;99.90
24146;DHT22;12308;50.948;4.706;2023-06-22T05:08:47;20.80;99.90
24146;DHT22;12308;50.948;4.706;2023-06-22T05:11:13;21.00;99.90
24146;DHT22;12308;50.948;4.706;2023-06-22T05:13:38;20.90;99.90
24146;DHT22;12308;50.948;4.706;2023-06-22T05:16:04;21.00;99.90
24146;DHT22;12308;50.948;4.706;2023-06-22T05:18:31;21.10;99.90
24146;DHT22;12308;50.948;4.706;2023-06-22T05:20:58;21.00;99.90
24146;DHT22;12308;50.948;4.706;2023-06-22T05:23:24;20.90;99.90
24146;DHT22;12308;50.948;4.706;2023-06-22T05:25:51;20.90;99.90
24146;DHT22;12308;50.948;4.706;2023-06-22T05:28:16;20.90;99.90
24146;DHT22;12308;50.948;4.706;2023-06-22T05:30:42;21.20;99.90
24146;DHT22;12308;50.948;4.706;2023-06-22T05:33:08;21.30;99.90
24146;DHT22;12308;50.948;4.706;2023-06-22T05:35:34;21.30;99.90
24146;DHT22;12308;50.948;4.706;2023-06-22T05:37:59;21.20;99.90
24146;DHT22;12308;50.948;4.706;2023-06-22T05:40:25;21.20;99.90
24146;DHT22;12308;50.948;4.706;2023-06-22T05:42:51;21.00;99.90
24146;DHT22;12308;50.948;4.706;2023-06-22T05:45:16;20.90;99.90
24146;DHT22;12308;50.948;4.706;2023-06-22T05:47:42;20.90;99.90
24146;DHT22;12308;50.948;4.706;2023-06-22T05:50:08;21.00;99.90
24146;DHT22;12308;50.948;4.706;2023-06-22T05:52:34;21.00;99.90
24146;DHT22;12308;50.948;4.706;2023-06-22T05:55:01;21.10;99.90
24146;DHT22;12308;50.948;4.706;2023-06-22T05:57:27;21.00;99.90
24146;DHT22;12308;50.948;4.706;2023-06-22T05:59:53;21.30;99.90
24146;DHT22;12308;50.948;4.706;2023-06-22T06:02:19;21.30;99.90
24146;DHT22;12308;50.948;4.706;2023-06-22T06:04:45;21.40;99.90
24146;DHT22;12308;50.948;4.706;2023-06-22T06:07:11;21.50;99.90
24146;DHT22;12308;50.948;4.706;2023-06-22T06:09:36;21.60;99.90
24146;DHT22;12308;50.948;4.706;2023-06-22T06:12:02;21.60;99.90
24146;DHT22;12308;50.948;4.706;2023-06-22T06:14:28;21.70;99.90
24146;DHT22;12308;50.948;4.706;2023-06-22T06:16:54;21.80;99.90
24146;DHT22;12308;50.948;4.706;2023-06-22T06:19:19;21.60;99.90
24146;DHT22;12308;50.948;4.706;2023-06-22T06:21:45;21.60;99.90
24146;DHT22;12308;50.948;4.706;2023-06-22T06:24:12;21.50;99.90
24146;DHT22;12308;50.948;4.706;2023-06-22T06:26:37;21.50;99.90
24146;DHT22;12308;50.948;4.706;2023-06-22T06:29:03;21.50;99.90
24146;DHT22;12308;50.948;4.706;2023-06-22T06:31:28;21.80;99.90
24146;DHT22;12308;50.948;4.706;2023-06-22T06:33:55;21.90;99.90
24146;DHT22;12308;50.948;4.706;2023-06-22T06:36:20;21.70;99.90
24146;DHT22;12308;50.948;4.706;2023-06-22T06:38:46;21.80;99.90
24146;DHT22;12308;50.948;4.706;2023-06-22T06:41:16;21.90;99.90
24146;DHT22;12308;50.948;4.706;2023-06-22T06:43:42;21.90;99.90
24146;DHT22;12308;50.948;4.706;2023-06-22T06:46:10;21.90;99.90
24146;DHT22;12308;50.948;4.706;2023-06-22T06:48:36;22.20;99.90
24146;DHT22;12308;50.948;4.706;2023-06-22T06:51:02;22.50;99.90
24146;DHT22;12308;50.948;4.706;2023-06-22T06:53:28;22.50;99.90
24146;DHT22;12308;50.948;4.706;2023-06-22T06:55:54;22.60;99.90
24146;DHT22;12308;50.948;4.706;2023-06-22T06:58:20;22.70;99.90
24146;DHT22;12308;50.948;4.706;2023-06-22T07:00:45;22.70;99.90
24146;DHT22;12308;50.948;4.706;2023-06-22T07:03:11;22.70;99.90
24146;DHT22;12308;50.948;4.706;2023-06-22T07:05:37;22.80;99.90
24146;DHT22;12308;50.948;4.706;2023-06-22T07:08:02;22.80;99.90
24146;DHT22;12308;50.948;4.706;2023-06-22T07:10:29;22.70;99.90
24146;DHT22;12308;50.948;4.706;2023-06-22T07:12:55;22.90;99.90
24146;DHT22;12308;50.948;4.706;2023-06-22T07:15:20;22.90;99.90
24146;DHT22;12308;50.948;4.706;2023-06-22T07:17:46;23.00;99.90
24146;DHT22;12308;50.948;4.706;2023-06-22T07:20:12;23.00;99.90
24146;DHT22;12308;50.948;4.706;2023-06-22T07:22:38;23.00;99.90
24146;DHT22;12308;50.948;4.706;2023-06-22T07:25:05;22.90;99.90
24146;DHT22;12308;50.948;4.706;2023-06-22T07:27:58;22.70;99.90
24146;DHT22;12308;50.948;4.706;2023-06-22T07:30:24;22.60;99.90
24146;DHT22;12308;50.948;4.706;2023-06-22T07:32:49;22.50;99.90
24146;DHT22;12308;50.948;4.706;2023-06-22T07:35:15;22.50;99.90
24146;DHT22;12308;50.948;4.706;2023-06-22T07:37:42;22.50;99.90
24146;DHT22;12308;50.948;4.706;2023-06-22T07:40:08;22.40;99.90
24146;DHT22;12308;50.948;4.706;2023-06-22T07:42:34;22.60;99.90
24146;DHT22;12308;50.948;4.706;2023-06-22T07:45:01;22.60;99.90
24146;DHT22;12308;50.948;4.706;2023-06-22T07:47:27;22.50;99.90
24146;DHT22;12308;50.948;4.706;2023-06-22T07:49:54;22.40;99.90
24146;DHT22;12308;50.948;4.706;2023-06-22T07:52:22;22.30;99.90
24146;DHT22;12308;50.948;4.706;2023-06-22T07:54:48;22.20;99.90
24146;DHT22;12308;50.948;4.706;2023-06-22T07:57:14;22.00;99.90
24146;DHT22;12308;50.948;4.706;2023-06-22T07:59:39;22.00;99.90
24146;DHT22;12308;50.948;4.706;2023-06-22T08:02:05;22.10;99.90
24146;DHT22;12308;50.948;4.706;2023-06-22T08:04:31;22.20;99.90
24146;DHT22;12308;50.948;4.706;2023-06-22T08:06:59;22.30;99.90
24146;DHT22;12308;50.948;4.706;2023-06-22T08:09:25;22.30;99.90
24146;DHT22;12308;50.948;4.706;2023-06-22T08:11:50;22.30;99.90
24146;DHT22;12308;50.948;4.706;2023-06-22T08:14:16;22.40;99.90
24146;DHT22;12308;50.948;4.706;2023-06-22T08:16:42;22.30;99.90
24146;DHT22;12308;50.948;4.706;2023-06-22T08:19:07;22.40;99.90
24146;DHT22;12308;50.948;4.706;2023-06-22T08:21:33;22.30;99.90
24146;DHT22;12308;50.948;4.706;2023-06-22T08:23:59;22.40;99.90
24146;DHT22;12308;50.948;4.706;2023-06-22T08:26:24;22.40;99.90
24146;DHT22;12308;50.948;4.706;2023-06-22T08:28:50;22.40;99.90
24146;DHT22;12308;50.948;4.706;2023-06-22T08:31:16;22.40;99.90
24146;DHT22;12308;50.948;4.706;2023-06-22T08:33:41;22.40;99.90
24146;DHT22;12308;50.948;4.706;2023-06-22T08:36:08;22.50;99.90
24146;DHT22;12308;50.948;4.706;2023-06-22T08:38:36;22.50;99.90
24146;DHT22;12308;50.948;4.706;2023-06-22T08:41:02;22.40;99.90
24146;DHT22;12308;50.948;4.706;2023-06-22T08:43:28;22.20;99.90
24146;DHT22;12308;50.948;4.706;2023-06-22T08:45:53;22.10;99.90
24146;DHT22;12308;50.948;4.706;2023-06-22T08:48:19;22.20;99.90
24146;DHT22;12308;50.948;4.706;2023-06-22T08:50:45;22.10;99.90
24146;DHT22;12308;50.948;4.706;2023-06-22T08:53:10;22.10;99.90
24146;DHT22;12308;50.948;4.706;2023-06-22T08:55:36;22.10;99.90
24146;DHT22;12308;50.948;4.706;2023-06-22T08:58:02;22.20;99.90
24146;DHT22;12308;50.948;4.706;2023-06-22T09:00:30;22.40;99.90
24146;DHT22;12308;50.948;4.706;2023-06-22T09:02:58;22.50;99.90
24146;DHT22;12308;50.948;4.706;2023-06-22T09:05:24;22.50;99.90
24146;DHT22;12308;50.948;4.706;2023-06-22T09:07:51;22.10;99.90
24146;DHT22;12308;50.948;4.706;2023-06-22T09:10:17;21.70;99.90
24146;DHT22;12308;50.948;4.706;2023-06-22T09:12:44;21.30;99.90
24146;DHT22;12308;50.948;4.706;2023-06-22T09:15:10;20.90;99.90
24146;DHT22;12308;50.948;4.706;2023-06-22T09:17:35;20.50;99.90
24146;DHT22;12308;50.948;4.706;2023-06-22T09:20:02;20.50;99.90
24146;DHT22;12308;50.948;4.706;2023-06-22T09:22:31;20.50;99.90
24146;DHT22;12308;50.948;4.706;2023-06-22T09:24:57;20.50;99.90
24146;DHT22;12308;50.948;4.706;2023-06-22T09:27:23;20.70;99.90
24146;DHT22;12308;50.948;4.706;2023-06-22T09:29:49;20.70;99.90
24146;DHT22;12308;50.948;4.706;2023-06-22T09:32:15;20.80;99.90
24146;DHT22;12308;50.948;4.706;2023-06-22T09:34:41;20.90;99.90
24146;DHT22;12308;50.948;4.706;2023-06-22T09:37:07;20.90;99.90
24146;DHT22;12308;50.948;4.706;2023-06-22T09:39:32;20.80;99.90
24146;DHT22;12308;50.948;4.706;2023-06-22T09:41:59;20.60;99.90
24146;DHT22;12308;50.948;4.706;2023-06-22T09:44:25;20.50;99.90
24146;DHT22;12308;50.948;4.706;2023-06-22T09:46:51;20.30;99.90
24146;DHT22;12308;50.948;4.706;2023-06-22T09:49:17;20.10;99.90
24146;DHT22;12308;50.948;4.706;2023-06-22T09:51:43;20.10;99.90
24146;DHT22;12308;50.948;4.706;2023-06-22T09:54:08;20.00;99.90
24146;DHT22;12308;50.948;4.706;2023-06-22T09:56:34;20.10;99.90
24146;DHT22;12308;50.948;4.706;2023-06-22T09:59:00;20.10;99.90
24146;DHT22;12308;50.948;4.706;2023-06-22T10:01:25;20.10;99.90
24146;DHT22;12308;50.948;4.706;2023-06-22T10:03:52;20.10;99.90
24146;DHT22;12308;50.948;4.706;2023-06-22T10:06:22;20.00;99.90
24146;DHT22;12308;50.948;4.706;2023-06-22T10:08:47;19.80;99.90
24146;DHT22;12308;50.948;4.706;2023-06-22T10:11:16;19.70;99.90
24146;DHT22;12308;50.948;4.706;2023-06-22T10:13:42;19.60;99.90
24146;DHT22;12308;50.948;4.706;2023-06-22T10:16:08;19.50;99.90
24146;DHT22;12308;50.948;4.706;2023-06-22T10:18:33;19.30;99.90
24146;DHT22;12308;50.948;4.706;2023-06-22T10:21:00;19.20;99.90
24146;DHT22;12308;50.948;4.706;2023-06-22T10:23:25;19.10;99.90
24146;DHT22;12308;50.948;4.706;2023-06-22T10:25:51;19.00;99.90
24146;DHT22;12308;50.948;4.706;2023-06-22T10:28:17;18.90;99.90
24146;DHT22;12308;50.948;4.706;2023-06-22T10:30:43;19.10;99.90
24146;DHT22;12308;50.948;4.706;2023-06-22T10:33:09;19.20;99.90
24146;DHT22;12308;50.948;4.706;2023-06-22T10:35:35;19.20;99.90
24146;DHT22;12308;50.948;4.706;2023-06-22T10:38:03;18.90;99.90
24146;DHT22;12308;50.948;4.706;2023-06-22T10:40:29;18.70;99.90
24146;DHT22;12308;50.948;4.706;2023-06-22T10:42:55;18.50;99.90
24146;DHT22;12308;50.948;4.706;2023-06-22T10:45:20;18.40;99.90
24146;DHT22;12308;50.948;4.706;2023-06-22T10:47:46;18.40;99.90
24146;DHT22;12308;50.948;4.706;2023-06-22T10:50:12;18.30;99.90
24146;DHT22;12308;50.948;4.706;2023-06-22T10:52:37;18.30;99.90
24146;DHT22;12308;50.948;4.706;2023-06-22T10:55:04;18.40;99.90
24146;DHT22;12308;50.948;4.706;2023-06-22T10:57:29;18.40;99.90
24146;DHT22;12308;50.948;4.706;2023-06-22T10:59:55;18.50;99.90
24146;DHT22;12308;50.948;4.706;2023-06-22T11:02:21;18.50;99.90
24146;DHT22;12308;50.948;4.706;2023-06-22T11:04:46;18.60;99.90
24146;DHT22;12308;50.948;4.706;2023-06-22T11:07:15;18.60;99.90
24146;DHT22;12308;50.948;4.706;2023-06-22T11:09:40;18.60;99.90
24146;DHT22;12308;50.948;4.706;2023-06-22T11:12:08;18.60;99.90
24146;DHT22;12308;50.948;4.706;2023-06-22T11:14:33;18.70;99.90
24146;DHT22;12308;50.948;4.706;2023-06-22T11:16:59;18.70;99.90
24146;DHT22;12308;50.948;4.706;2023-06-22T11:19:25;18.60;99.90
24146;DHT22;12308;50.948;4.706;2023-06-22T11:21:51;18.60;99.90
24146;DHT22;12308;50.948;4.706;2023-06-22T11:24:17;18.60;99.90
24146;DHT22;12308;50.948;4.706;2023-06-22T11:26:43;18.70;99.90
24146;DHT22;12308;50.948;4.706;2023-06-22T11:29:09;18.80;99.90
24146;DHT22;12308;50.948;4.706;2023-06-22T11:31:35;19.00;99.90
24146;DHT22;12308;50.948;4.706;2023-06-22T11:34:01;19.00;99.90
24146;DHT22;12308;50.948;4.706;2023-06-22T11:36:27;19.10;99.90
24146;DHT22;12308;50.948;4.706;2023-06-22T11:38:54;19.20;99.90
24146;DHT22;12308;50.948;4.706;2023-06-22T11:41:20;19.30;99.90
24146;DHT22;12308;50.948;4.706;2023-06-22T11:43:46;19.40;99.90
24146;DHT22;12308;50.948;4.706;2023-06-22T11:46:11;19.50;99.90
24146;DHT22;12308;50.948;4.706;2023-06-22T11:48:37;19.50;99.90
24146;DHT22;12308;50.948;4.706;2023-06-22T11:51:03;19.60;99.90
24146;DHT22;12308;50.948;4.706;2023-06-22T11:53:29;19.50;99.90
24146;DHT22;12308;50.948;4.706;2023-06-22T11:55:55;19.50;99.90
24146;DHT22;12308;50.948;4.706;2023-06-22T11:58:22;19.50;99.90
24146;DHT22;12308;50.948;4.706;2023-06-22T12:00:47;19.50;99.90
24146;DHT22;12308;50.948;4.706;2023-06-22T12:03:13;19.40;99.90
24146;DHT22;12308;50.948;4.706;2023-06-22T12:05:41;19.40;99.90
24146;DHT22;12308;50.948;4.706;2023-06-22T12:08:06;19.30;99.90
24146;DHT22;12308;50.948;4.706;2023-06-22T12:10:32;19.30;99.90
24146;DHT22;12308;50.948;4.706;2023-06-22T12:12:58;19.20;99.90
24146;DHT22;12308;50.948;4.706;2023-06-22T12:15:26;19.20;99.90
24146;DHT22;12308;50.948;4.706;2023-06-22T12:17:51;19.20;99.90
24146;DHT22;12308;50.948;4.706;2023-06-22T12:20:17;19.10;99.90
24146;DHT22;12308;50.948;4.706;2023-06-22T12:22:44;19.10;99.90
24146;DHT22;12308;50.948;4.706;2023-06-22T12:25:10;19.10;99.90
24146;DHT22;12308;50.948;4.706;2023-06-22T12:27:36;19.20;99.90
24146;DHT22;12308;50.948;4.706;2023-06-22T12:30:02;19.20;99.90
24146;DHT22;12308;50.948;4.706;2023-06-22T12:32:28;19.10;99.90
24146;DHT22;12308;50.948;4.706;2023-06-22T12:34:54;19.00;99.90
24146;DHT22;12308;50.948;4.706;2023-06-22T12:37:20;19.00;99.90
24146;DHT22;12308;50.948;4.706;2023-06-22T12:39:46;19.00;99.90
24146;DHT22;12308;50.948;4.706;2023-06-22T12:42:12;18.90;99.90
24146;DHT22;12308;50.948;4.706;2023-06-22T12:44:40;18.90;99.90
24146;DHT22;12308;50.948;4.706;2023-06-22T12:47:06;18.90;99.90
24146;DHT22;12308;50.948;4.706;2023-06-22T12:49:34;19.00;99.90
24146;DHT22;12308;50.948;4.706;2023-06-22T12:52:00;19.00;99.90
24146;DHT22;12308;50.948;4.706;2023-06-22T12:54:26;19.00;99.90
24146;DHT22;12308;50.948;4.706;2023-06-22T12:56:53;19.00;99.90
24146;DHT22;12308;50.948;4.706;2023-06-22T12:59:18;19.00;99.90
24146;DHT22;12308;50.948;4.706;2023-06-22T13:01:44;19.10;99.90
24146;DHT22;12308;50.948;4.706;2023-06-22T13:04:11;19.00;99.90
24146;DHT22;12308;50.948;4.706;2023-06-22T13:06:40;19.00;99.90
24146;DHT22;12308;50.948;4.706;2023-06-22T13:09:06;19.00;99.90
24146;DHT22;12308;50.948;4.706;2023-06-22T13:11:31;18.90;99.90
24146;DHT22;12308;50.948;4.706;2023-06-22T13:13:57;18.90;99.90
24146;DHT22;12308;50.948;4.706;2023-06-22T13:16:23;19.00;99.90
24146;DHT22;12308;50.948;4.706;2023-06-22T13:18:48;19.00;99.90
24146;DHT22;12308;50.948;4.706;2023-06-22T13:21:14;19.10;99.90
24146;DHT22;12308;50.948;4.706;2023-06-22T13:23:40;19.10;99.90
24146;DHT22;12308;50.948;4.706;2023-06-22T13:26:05;19.10;99.90
24146;DHT22;12308;50.948;4.706;2023-06-22T13:28:31;19.10;99.90
24146;DHT22;12308;50.948;4.706;2023-06-22T13:30:57;19.20;99.90
24146;DHT22;12308;50.948;4.706;2023-06-22T13:33:23;19.10;99.90
24146;DHT22;12308;50.948;4.706;2023-06-22T13:35:48;19.10;99.90
24146;DHT22;12308;50.948;4.706;2023-06-22T13:38:14;19.10;99.90
24146;DHT22;12308;50.948;4.706;2023-06-22T13:40:40;19.10;99.90
24146;DHT22;12308;50.948;4.706;2023-06-22T13:43:06;19.20;99.90
24146;DHT22;12308;50.948;4.706;2023-06-22T13:45:32;19.20;99.90
24146;DHT22;12308;50.948;4.706;2023-06-22T13:47:58;19.10;99.90
24146;DHT22;12308;50.948;4.706;2023-06-22T13:50:24;19.10;99.90
24146;DHT22;12308;50.948;4.706;2023-06-22T13:52:49;19.10;99.90
24146;DHT22;12308;50.948;4.706;2023-06-22T13:55:15;19.20;99.90
24146;DHT22;12308;50.948;4.706;2023-06-22T13:57:43;19.20;99.90
24146;DHT22;12308;50.948;4.706;2023-06-22T14:00:09;19.10;99.90
24146;DHT22;12308;50.948;4.706;2023-06-22T14:02:34;19.10;99.90
24146;DHT22;12308;50.948;4.706;2023-06-22T14:05:00;19.00;99.90
24146;DHT22;12308;50.948;4.706;2023-06-22T14:07:27;19.00;99.90
24146;DHT22;12308;50.948;4.706;2023-06-22T14:09:53;19.00;99.90
24146;DHT22;12308;50.948;4.706;2023-06-22T14:12:19;19.00;99.90
24146;DHT22;12308;50.948;4.706;2023-06-22T14:14:44;19.10;99.90
24146;DHT22;12308;50.948;4.706;2023-06-22T14:17:10;19.10;99.90
24146;DHT22;12308;50.948;4.706;2023-06-22T14:19:36;19.00;99.90
24146;DHT22;12308;50.948;4.706;2023-06-22T14:22:02;19.10;99.90
24146;DHT22;12308;50.948;4.706;2023-06-22T14:24:28;19.10;99.90
24146;DHT22;12308;50.948;4.706;2023-06-22T14:26:54;19.20;99.90
24146;DHT22;12308;50.948;4.706;2023-06-22T14:29:20;19.10;99.90
24146;DHT22;12308;50.948;4.706;2023-06-22T14:31:47;19.00;99.90
24146;DHT22;12308;50.948;4.706;2023-06-22T14:34:13;18.90;99.90
24146;DHT22;12308;50.948;4.706;2023-06-22T14:36:39;18.90;99.90
24146;DHT22;12308;50.948;4.706;2023-06-22T14:39:05;18.80;99.90
24146;DHT22;12308;50.948;4.706;2023-06-22T14:41:30;18.80;99.90
24146;DHT22;12308;50.948;4.706;2023-06-22T14:43:56;18.80;99.90
24146;DHT22;12308;50.948;4.706;2023-06-22T14:46:22;18.80;99.90
24146;DHT22;12308;50.948;4.706;2023-06-22T14:48:48;18.80;99.90
24146;DHT22;12308;50.948;4.706;2023-06-22T14:51:14;18.80;99.90
24146;DHT22;12308;50.948;4.706;2023-06-22T14:53:41;18.80;99.90
24146;DHT22;12308;50.948;4.706;2023-06-22T14:56:07;18.80;99.90
24146;DHT22;12308;50.948;4.706;2023-06-22T14:58:33;18.80;99.90
24146;DHT22;12308;50.948;4.706;2023-06-22T15:01:03;18.80;99.90
24146;DHT22;12308;50.948;4.706;2023-06-22T15:03:30;18.80;99.90
24146;DHT22;12308;50.948;4.706;2023-06-22T15:05:57;18.90;99.90
24146;DHT22;12308;50.948;4.706;2023-06-22T15:08:24;18.90;99.90
24146;DHT22;12308;50.948;4.706;2023-06-22T15:10:50;18.90;99.90
24146;DHT22;12308;50.948;4.706;2023-06-22T15:13:16;19.00;99.90
24146;DHT22;12308;50.948;4.706;2023-06-22T15:15:43;19.00;99.90
24146;DHT22;12308;50.948;4.706;2023-06-22T15:18:09;19.00;99.90
24146;DHT22;12308;50.948;4.706;2023-06-22T15:20:34;19.00;99.90
24146;DHT22;12308;50.948;4.706;2023-06-22T15:23:00;19.00;99.90
24146;DHT22;12308;50.948;4.706;2023-06-22T15:25:26;19.10;99.90
24146;DHT22;12308;50.948;4.706;2023-06-22T15:27:51;19.20;99.90